SLET/SRZ METAR and TAF weather

Enter ICAO airport designator
Station Type Date Time Source
SLET METAR 2021/09/25 12:00 UTC NOAA

SLET 251200Z 18010KT 7000 NSC 25/11 Q1017


Station Type Date Time Source
SLET Decoded METAR 2021/09/25 12:00 UTC NOAA

Santa Cruz / El Trompillo, Bolivia (SLET) 17-48S 063-11W 414M
Sep 25, 2021 - 08:00 AM EDT / 2021.09.25 1200 UTC
Wind: from the S (180 degrees) at 12 MPH (10 KT):0
Visibility: 4 mile(s):0
Temperature: 77 F (25 C)
Dew Point: 51 F (11 C)
Relative Humidity: 41%
Pressure (altimeter): 30.03 in. Hg (1017 hPa)
ob: SLET 251200Z 18010KT 7000 NSC 25/11 Q1017
cycle: 12

Station Type Date Time Source
SLET TAF 2021/09/25 06:59 UTC NOAA

TAF SLET 250450Z 2506/2606 19005KT 9999 NSC TX34/2519Z TN21/2510Z
BECMG 2515/2518 32010KT SCT070
BECMG 2603/2606 VRB02KT NSC

Example: see airport list